createdAt,value
2022-08-14T00:02:01.619Z,23.30
2022-08-14T00:04:42.044Z,23.30
2022-08-14T00:07:13.889Z,23.20
2022-08-14T00:09:55.457Z,23.10
2022-08-14T00:12:33.683Z,23.10
2022-08-14T00:15:16.728Z,23.10
2022-08-14T00:17:47.468Z,23.10
2022-08-14T00:20:23.663Z,23.10
2022-08-14T00:22:57.549Z,23.10
2022-08-14T00:25:41.804Z,23.10
2022-08-14T00:28:15.032Z,23.10
2022-08-14T00:30:47.273Z,23.10
2022-08-14T00:33:16.548Z,23.00
2022-08-14T00:36:36.074Z,23.00
2022-08-14T00:38:34.958Z,23.00
2022-08-14T00:41:05.062Z,23.00
2022-08-14T00:43:34.436Z,22.90
2022-08-14T00:46:08.095Z,22.90
2022-08-14T00:48:38.509Z,22.90
2022-08-14T00:51:09.962Z,22.90
2022-08-14T00:53:39.616Z,22.90
2022-08-14T00:56:11.334Z,22.90
2022-08-14T00:58:45.114Z,22.90
2022-08-14T01:01:18.791Z,22.80
2022-08-14T01:03:46.458Z,22.70
2022-08-14T01:06:21.275Z,22.70
2022-08-14T01:08:51.558Z,22.60
2022-08-14T01:11:35.607Z,22.60
2022-08-14T01:14:25.181Z,22.50
2022-08-14T01:16:52.821Z,22.50
2022-08-14T01:19:39.279Z,22.50
2022-08-14T01:22:12.604Z,22.50
2022-08-14T01:24:43.530Z,22.30
2022-08-14T01:27:19.201Z,22.30
2022-08-14T01:30:03.288Z,22.30
2022-08-14T01:32:35.653Z,22.20
2022-08-14T01:35:21.071Z,22.20
2022-08-14T01:37:58.011Z,22.20
2022-08-14T01:40:36.224Z,22.10
2022-08-14T01:43:18.813Z,22.10
2022-08-14T01:46:05.826Z,22.10
2022-08-14T01:48:37.031Z,22.00
2022-08-14T01:51:18.688Z,22.00
2022-08-14T01:53:54.900Z,21.90
2022-08-14T01:56:37.267Z,21.90
2022-08-14T01:59:14.542Z,21.90
2022-08-14T02:01:58.645Z,21.90
2022-08-14T02:04:55.171Z,21.80
2022-08-14T02:07:44.669Z,21.80
2022-08-14T02:10:07.873Z,21.80
2022-08-14T02:12:40.960Z,21.70
2022-08-14T02:15:11.444Z,21.70
2022-08-14T02:17:39.146Z,21.60
2022-08-14T02:20:08.658Z,21.60
2022-08-14T02:22:47.946Z,21.60
2022-08-14T02:25:16.820Z,21.50
2022-08-14T02:28:25.074Z,21.50
2022-08-14T02:30:34.770Z,21.50
2022-08-14T02:33:07.236Z,21.40
2022-08-14T02:35:40.611Z,21.40
2022-08-14T02:38:11.499Z,21.30
2022-08-14T02:40:40.565Z,21.30
2022-08-14T02:43:10.464Z,21.30
2022-08-14T02:45:45.249Z,21.30
2022-08-14T02:49:04.869Z,21.30
2022-08-14T02:51:07.236Z,21.20
2022-08-14T02:53:39.866Z,21.30
2022-08-14T02:56:30.548Z,21.20
2022-08-14T02:59:05.524Z,21.10
2022-08-14T03:01:50.156Z,21.10
2022-08-14T03:04:20.713Z,21.10
2022-08-14T03:06:57.455Z,21.10
2022-08-14T03:09:25.886Z,21.10
2022-08-14T03:12:13.297Z,21.10
2022-08-14T03:14:54.144Z,21.00
2022-08-14T03:17:21.536Z,20.90
2022-08-14T03:19:49.818Z,20.90
2022-08-14T03:22:18.973Z,20.90
2022-08-14T03:24:46.673Z,20.90
2022-08-14T03:27:19.328Z,20.90
2022-08-14T03:29:48.141Z,20.90
2022-08-14T03:32:16.166Z,20.90
2022-08-14T03:34:52.742Z,20.80
2022-08-14T03:37:38.473Z,20.80
2022-08-14T03:40:12.249Z,20.70
2022-08-14T03:42:46.028Z,20.70
2022-08-14T03:45:27.105Z,20.70
2022-08-14T03:48:30.335Z,20.70
2022-08-14T03:50:59.712Z,20.70
2022-08-14T03:53:31.331Z,20.70
2022-08-14T03:56:01.939Z,20.70
2022-08-14T03:58:36.177Z,20.60
2022-08-14T04:01:06.417Z,20.60
2022-08-14T04:03:34.366Z,20.60
2022-08-14T04:06:06.074Z,20.60
2022-08-14T04:08:41.884Z,20.60
2022-08-14T04:11:10.556Z,20.60
2022-08-14T04:13:42.310Z,20.60
2022-08-14T04:16:12.713Z,20.60
2022-08-14T04:18:46.322Z,20.60
2022-08-14T04:21:16.333Z,20.60
2022-08-14T04:23:45.627Z,20.50
2022-08-14T04:26:27.027Z,20.50
2022-08-14T04:29:14.400Z,20.50
2022-08-14T04:33:02.567Z,20.50
2022-08-14T04:34:31.316Z,20.50
2022-08-14T04:37:22.395Z,20.50
2022-08-14T04:40:13.694Z,20.50
2022-08-14T04:43:01.652Z,20.50
2022-08-14T04:45:38.714Z,20.50
2022-08-14T04:48:39.415Z,20.50
2022-08-14T04:51:04.023Z,20.50
2022-08-14T04:53:35.081Z,20.50
2022-08-14T04:56:05.812Z,20.40
2022-08-14T04:58:34.740Z,20.40
2022-08-14T05:01:12.903Z,20.50
2022-08-14T05:03:45.178Z,20.40
2022-08-14T05:06:37.742Z,20.40
2022-08-14T05:09:00.924Z,20.40
2022-08-14T05:11:30.465Z,20.40
2022-08-14T05:14:17.151Z,20.40
2022-08-14T05:16:46.837Z,20.40
2022-08-14T05:19:25.095Z,20.40
2022-08-14T05:22:15.903Z,20.50
2022-08-14T05:24:49.633Z,20.40
2022-08-14T05:27:22.981Z,20.40
2022-08-14T05:29:53.603Z,20.40
2022-08-14T05:32:21.953Z,20.40
2022-08-14T05:34:50.307Z,20.40
2022-08-14T05:37:17.712Z,20.40
2022-08-14T05:39:45.180Z,20.40
2022-08-14T05:42:22.434Z,20.40
2022-08-14T05:44:55.843Z,20.40
2022-08-14T05:47:28.583Z,20.40
2022-08-14T05:50:02.131Z,20.40
2022-08-14T05:52:38.738Z,20.40
2022-08-14T05:55:22.625Z,20.50
2022-08-14T05:57:57.985Z,20.50
2022-08-14T06:00:37.053Z,20.60
2022-08-14T06:03:14.787Z,20.60
2022-08-14T06:05:44.023Z,20.70
2022-08-14T06:08:36.206Z,20.70
2022-08-14T06:11:09.684Z,20.70
2022-08-14T06:13:44.430Z,20.70
2022-08-14T06:16:14.503Z,20.80
2022-08-14T06:18:47.350Z,20.80
2022-08-14T06:21:15.936Z,20.80
2022-08-14T06:23:44.928Z,20.80
2022-08-14T06:26:16.572Z,20.80
2022-08-14T06:28:52.183Z,20.80
2022-08-14T06:31:21.217Z,20.80
2022-08-14T06:35:04.754Z,20.80
2022-08-14T06:36:38.034Z,20.90
2022-08-14T06:39:10.155Z,20.90
2022-08-14T06:41:57.191Z,20.90
2022-08-14T06:44:30.575Z,21.00
2022-08-14T06:47:01.869Z,21.10
2022-08-14T06:49:30.084Z,21.10
2022-08-14T06:51:58.012Z,21.20
2022-08-14T06:54:31.113Z,21.10
2022-08-14T06:56:59.464Z,21.10
2022-08-14T06:59:27.057Z,21.20
2022-08-14T07:02:17.634Z,21.30
2022-08-14T07:05:05.252Z,21.30
2022-08-14T07:07:41.306Z,21.40
2022-08-14T07:10:16.944Z,21.40
2022-08-14T07:13:01.387Z,21.40
2022-08-14T07:15:39.706Z,21.50
2022-08-14T07:18:10.149Z,21.60
2022-08-14T07:20:39.339Z,21.70
2022-08-14T07:23:09.297Z,21.70
2022-08-14T07:25:42.326Z,21.80
2022-08-14T07:28:20.366Z,21.80
2022-08-14T07:30:50.737Z,21.90
2022-08-14T07:33:24.746Z,22.00
2022-08-14T07:36:02.277Z,22.00
2022-08-14T07:38:36.327Z,22.10
2022-08-14T07:41:06.854Z,22.10
2022-08-14T07:43:44.203Z,22.20
2022-08-14T07:46:21.042Z,22.30
2022-08-14T07:48:48.538Z,22.30
2022-08-14T07:51:15.956Z,22.40
2022-08-14T07:53:44.878Z,22.50
2022-08-14T07:56:22.113Z,22.60
2022-08-14T07:59:03.235Z,22.70
2022-08-14T08:01:36.720Z,22.70
2022-08-14T08:04:16.667Z,22.80
2022-08-14T08:06:46.426Z,22.90
2022-08-14T08:09:14.098Z,23.00
2022-08-14T08:11:42.400Z,23.10
2022-08-14T08:14:17.625Z,23.20
2022-08-14T08:16:50.941Z,23.30
2022-08-14T08:19:19.200Z,23.30
2022-08-14T08:21:47.689Z,23.40
2022-08-14T08:24:19.973Z,23.60
2022-08-14T08:26:50.675Z,23.70
2022-08-14T08:29:28.564Z,23.60
2022-08-14T08:32:01.633Z,23.60
2022-08-14T08:34:46.093Z,23.80
2022-08-14T08:37:13.917Z,23.90
2022-08-14T08:40:01.712Z,24.10
2022-08-14T08:42:38.375Z,24.20
2022-08-14T08:45:12.399Z,24.30
2022-08-14T08:47:40.849Z,24.30
2022-08-14T08:50:31.858Z,24.30
2022-08-14T08:53:02.039Z,24.40
2022-08-14T08:55:40.400Z,24.50
2022-08-14T08:58:19.883Z,24.60
2022-08-14T09:00:54.882Z,24.60
2022-08-14T09:03:27.945Z,24.80
2022-08-14T09:06:00.996Z,25.00
2022-08-14T09:08:35.455Z,25.10
2022-08-14T09:11:19.425Z,25.20
2022-08-14T09:13:51.525Z,25.20
2022-08-14T09:16:25.285Z,25.30
2022-08-14T09:18:54.850Z,25.30
2022-08-14T09:21:23.990Z,25.40
2022-08-14T09:24:28.403Z,25.40
2022-08-14T09:26:44.203Z,25.40
2022-08-14T09:29:22.854Z,25.50
2022-08-14T09:31:58.233Z,25.70
2022-08-14T09:34:58.997Z,25.90
2022-08-14T09:37:53.857Z,25.90
2022-08-14T09:40:50.560Z,26.00
2022-08-14T09:43:30.231Z,26.10
2022-08-14T09:46:01.126Z,26.30
2022-08-14T09:48:31.346Z,26.30
2022-08-14T09:54:18.037Z,26.60
2022-08-14T09:56:43.751Z,26.70
2022-08-14T09:59:15.477Z,26.70
2022-08-14T10:01:52.349Z,26.70
2022-08-14T10:04:34.942Z,26.80
2022-08-14T10:07:08.511Z,27.20
2022-08-14T10:09:57.614Z,27.30
2022-08-14T10:12:42.397Z,27.50
2022-08-14T10:15:20.730Z,27.50
2022-08-14T10:17:49.279Z,27.60
2022-08-14T10:20:40.671Z,27.60
2022-08-14T10:23:16.474Z,27.60
2022-08-14T10:25:52.914Z,27.80
2022-08-14T10:28:39.552Z,27.70
2022-08-14T10:31:25.745Z,27.80
2022-08-14T10:34:13.295Z,28.00
2022-08-14T10:36:44.904Z,28.10
2022-08-14T10:39:19.194Z,28.30
2022-08-14T10:41:54.024Z,28.40
2022-08-14T10:44:25.389Z,28.50
2022-08-14T10:47:41.601Z,28.50
2022-08-14T10:50:00.444Z,28.80
2022-08-14T10:52:34.658Z,28.90
2022-08-14T10:55:08.272Z,28.80
2022-08-14T10:57:51.211Z,28.80
2022-08-14T11:00:30.008Z,29.30
2022-08-14T11:03:19.704Z,29.50
2022-08-14T11:05:55.565Z,29.50
2022-08-14T11:08:34.280Z,29.50
2022-08-14T11:11:05.611Z,29.90
2022-08-14T11:13:34.492Z,30.00
2022-08-14T11:16:02.722Z,30.30
2022-08-14T11:18:36.036Z,30.50
2022-08-14T11:21:08.392Z,30.50
2022-08-14T11:23:44.161Z,30.90
2022-08-14T11:26:14.153Z,31.00
2022-08-14T11:28:50.152Z,31.30
2022-08-14T11:31:24.237Z,31.50
2022-08-14T11:33:58.379Z,31.50
2022-08-14T11:36:57.308Z,31.70
2022-08-14T11:39:36.176Z,31.60
2022-08-14T11:42:57.376Z,31.60
2022-08-14T11:45:00.087Z,31.50
2022-08-14T11:47:35.585Z,31.70
2022-08-14T11:50:24.937Z,31.90
2022-08-14T11:53:04.281Z,32.00
2022-08-14T11:55:38.175Z,32.00
2022-08-14T11:58:09.579Z,32.10
2022-08-14T12:00:53.743Z,32.20
2022-08-14T12:03:37.759Z,32.10
2022-08-14T12:06:28.165Z,32.10
2022-08-14T12:09:03.668Z,32.10
2022-08-14T12:11:43.845Z,32.00
2022-08-14T12:14:29.855Z,32.20
2022-08-14T12:17:12.868Z,32.30
2022-08-14T12:19:50.984Z,32.40
2022-08-14T12:22:29.801Z,32.70
2022-08-14T12:24:58.048Z,32.60
2022-08-14T12:27:41.997Z,32.60
2022-08-14T12:30:42.655Z,32.80
2022-08-14T12:33:33.811Z,33.10
2022-08-14T12:36:05.727Z,33.30
2022-08-14T12:38:44.949Z,33.40
2022-08-14T12:41:20.851Z,33.40
2022-08-14T12:43:53.545Z,33.40
2022-08-14T12:46:35.849Z,33.10
2022-08-14T12:49:16.011Z,32.90
2022-08-14T12:51:55.112Z,32.90
2022-08-14T12:54:28.320Z,33.00
2022-08-14T12:57:08.965Z,32.90
2022-08-14T12:59:42.718Z,32.90
2022-08-14T13:02:25.343Z,33.00
2022-08-14T13:04:58.018Z,33.10
2022-08-14T13:07:32.163Z,33.40
2022-08-14T13:10:12.886Z,33.60
2022-08-14T13:13:12.574Z,33.60
2022-08-14T13:15:40.455Z,34.00
2022-08-14T13:18:09.100Z,34.30
2022-08-14T13:20:36.959Z,34.60
2022-08-14T13:23:08.364Z,35.00
2022-08-14T13:25:40.688Z,35.10
2022-08-14T13:28:32.794Z,34.50
2022-08-14T13:31:08.919Z,34.00
2022-08-14T13:33:40.864Z,33.30
2022-08-14T13:36:10.187Z,33.50
2022-08-14T13:38:53.611Z,34.10
2022-08-14T13:41:31.878Z,34.10
2022-08-14T13:44:04.564Z,34.30
2022-08-14T13:46:32.744Z,34.50
2022-08-14T13:49:00.249Z,34.60
2022-08-14T13:51:35.972Z,34.70
2022-08-14T13:54:11.467Z,35.00
2022-08-14T13:56:40.827Z,35.20
2022-08-14T13:59:10.609Z,35.20
2022-08-14T14:01:43.615Z,35.00
2022-08-14T14:04:19.155Z,34.50
2022-08-14T14:06:49.839Z,34.00
2022-08-14T14:09:37.682Z,33.60
2022-08-14T14:12:36.678Z,33.50
2022-08-14T14:15:09.863Z,33.50
2022-08-14T14:17:39.564Z,33.80
2022-08-14T14:20:34.000Z,33.50
2022-08-14T14:23:02.515Z,33.40
2022-08-14T14:25:46.403Z,33.60
2022-08-14T14:28:24.246Z,33.20
2022-08-14T14:30:57.541Z,33.20
2022-08-14T14:33:47.437Z,33.50
2022-08-14T14:36:25.009Z,33.30
2022-08-14T14:38:57.937Z,33.30
2022-08-14T14:41:38.105Z,33.40
2022-08-14T14:44:09.146Z,33.10
2022-08-14T14:46:41.435Z,32.80
2022-08-14T14:49:14.353Z,32.40
2022-08-14T14:51:46.949Z,32.00
2022-08-14T14:54:30.247Z,32.40
2022-08-14T14:57:00.564Z,32.40
2022-08-14T14:59:33.438Z,32.50
2022-08-14T15:02:08.184Z,32.30
2022-08-14T15:04:38.897Z,32.20
2022-08-14T15:07:12.590Z,32.10
2022-08-14T15:09:41.090Z,31.90
2022-08-14T15:12:27.965Z,31.80
2022-08-14T15:14:58.178Z,31.60
2022-08-14T15:17:41.470Z,31.40
2022-08-14T15:20:17.419Z,31.30
2022-08-14T15:23:00.965Z,31.10
2022-08-14T15:25:36.437Z,31.10
2022-08-14T15:28:05.614Z,31.00
2022-08-14T15:30:33.014Z,30.90
2022-08-14T15:33:00.649Z,30.90
2022-08-14T15:35:29.803Z,30.90
2022-08-14T15:38:08.763Z,30.80
2022-08-14T15:40:41.416Z,30.80
2022-08-14T15:43:10.891Z,30.70
2022-08-14T15:45:43.540Z,30.70
2022-08-14T15:48:22.029Z,30.60
2022-08-14T15:50:50.906Z,30.70
2022-08-14T15:53:22.336Z,30.70
2022-08-14T15:55:54.797Z,30.60
2022-08-14T15:58:24.716Z,30.70
2022-08-14T16:01:13.224Z,30.60
2022-08-14T16:03:42.459Z,30.60
2022-08-14T16:06:17.685Z,30.60
2022-08-14T16:08:50.069Z,30.60
2022-08-14T16:11:19.087Z,30.60
2022-08-14T16:13:47.639Z,30.60
2022-08-14T16:16:34.955Z,30.60
2022-08-14T16:19:11.412Z,30.60
2022-08-14T16:21:40.574Z,30.60
2022-08-14T16:24:27.826Z,30.50
2022-08-14T16:27:00.385Z,30.40
2022-08-14T16:29:38.535Z,30.40
2022-08-14T16:32:33.320Z,30.40
2022-08-14T16:34:57.341Z,30.30
2022-08-14T16:37:31.072Z,30.20
2022-08-14T16:40:03.630Z,30.20
2022-08-14T16:42:39.153Z,30.10
2022-08-14T16:45:26.210Z,30.00
2022-08-14T16:47:55.889Z,29.90
2022-08-14T16:50:40.758Z,29.80
2022-08-14T16:53:17.725Z,29.70
2022-08-14T16:55:53.244Z,29.70
2022-08-14T16:58:29.641Z,29.60
2022-08-14T17:01:24.571Z,29.50
2022-08-14T17:04:25.133Z,29.40
2022-08-14T17:06:56.140Z,29.30
2022-08-14T17:09:43.225Z,29.30
2022-08-14T17:12:28.764Z,29.30
2022-08-14T17:15:09.903Z,29.20
2022-08-14T17:17:40.912Z,29.20
2022-08-14T17:20:53.810Z,29.20
2022-08-14T17:23:00.240Z,29.10
2022-08-14T17:25:36.455Z,29.00
2022-08-14T17:28:51.280Z,29.00
2022-08-14T17:31:07.404Z,29.00
2022-08-14T17:33:40.266Z,28.90
2022-08-14T17:36:24.187Z,28.90
2022-08-14T17:39:14.990Z,28.90
2022-08-14T17:42:02.907Z,28.90
2022-08-14T17:44:45.641Z,28.90
2022-08-14T17:47:18.326Z,28.80
2022-08-14T17:49:52.112Z,28.80
2022-08-14T17:52:34.267Z,28.80
2022-08-14T17:56:01.429Z,28.80
2022-08-14T17:58:00.869Z,28.80
2022-08-14T18:00:28.680Z,28.70
2022-08-14T18:02:58.445Z,28.70
2022-08-14T18:06:06.602Z,28.70
2022-08-14T18:08:32.572Z,28.70
2022-08-14T18:11:03.354Z,28.70
2022-08-14T18:13:50.891Z,28.60
2022-08-14T18:16:22.551Z,28.60
2022-08-14T18:18:51.616Z,28.60
2022-08-14T18:21:42.569Z,28.60
2022-08-14T18:24:20.123Z,28.50
2022-08-14T18:27:02.408Z,28.50
2022-08-14T18:29:55.005Z,28.40
2022-08-14T18:32:31.966Z,28.30
2022-08-14T18:34:59.349Z,28.30
2022-08-14T18:37:28.540Z,28.30
2022-08-14T18:40:15.905Z,28.40
2022-08-14T18:42:58.159Z,28.30
2022-08-14T18:45:32.475Z,28.30
2022-08-14T18:48:15.854Z,28.20
2022-08-14T18:51:04.317Z,28.20
2022-08-14T18:53:54.611Z,28.10
2022-08-14T18:56:57.689Z,28.10
2022-08-14T18:59:30.066Z,28.00
2022-08-14T19:02:30.319Z,27.90
2022-08-14T19:05:02.519Z,27.90
2022-08-14T19:07:33.939Z,27.90
2022-08-14T19:10:07.784Z,27.80
2022-08-14T19:12:53.454Z,27.80
2022-08-14T19:15:26.039Z,27.80
2022-08-14T19:18:14.674Z,27.80
2022-08-14T19:20:54.116Z,27.80
2022-08-14T19:23:43.205Z,27.80
2022-08-14T19:26:37.007Z,27.80
2022-08-14T19:29:37.800Z,27.80
2022-08-14T19:32:36.922Z,27.70
2022-08-14T19:35:18.464Z,27.60
2022-08-14T19:37:52.510Z,27.60
2022-08-14T19:40:34.042Z,27.60
2022-08-14T19:43:06.794Z,27.70
2022-08-14T19:45:38.855Z,27.80
2022-08-14T19:48:14.557Z,27.70
2022-08-14T19:50:46.771Z,27.70
2022-08-14T19:53:16.964Z,27.70
2022-08-14T19:56:02.146Z,27.70
2022-08-14T19:58:54.149Z,27.60
2022-08-14T20:01:36.741Z,27.50
2022-08-14T20:04:45.342Z,27.50
2022-08-14T20:06:56.534Z,27.50
2022-08-14T20:11:08.564Z,27.50
2022-08-14T20:12:28.761Z,27.50
2022-08-14T20:15:08.747Z,27.60
2022-08-14T20:17:40.428Z,27.60
2022-08-14T20:20:21.039Z,27.60
2022-08-14T20:23:11.582Z,27.60
2022-08-14T20:25:55.910Z,27.60
2022-08-14T20:28:32.034Z,27.50
2022-08-14T20:31:12.887Z,27.50
2022-08-14T20:34:06.111Z,27.50
2022-08-14T20:36:40.629Z,27.50
2022-08-14T20:39:15.362Z,27.50
2022-08-14T20:41:51.091Z,27.40
2022-08-14T20:44:41.707Z,27.40
2022-08-14T20:47:16.367Z,27.30
2022-08-14T20:49:44.519Z,27.30
2022-08-14T20:52:20.124Z,27.30
2022-08-14T20:54:51.458Z,27.20
2022-08-14T20:57:19.548Z,27.10
2022-08-14T20:59:53.201Z,27.10
2022-08-14T21:02:29.658Z,27.10
2022-08-14T21:05:16.610Z,27.00
2022-08-14T21:07:50.270Z,26.80
2022-08-14T21:10:35.298Z,26.80
2022-08-14T21:14:09.203Z,26.60
2022-08-14T21:15:57.344Z,26.50
2022-08-14T21:18:32.417Z,26.30
2022-08-14T21:21:06.927Z,26.20
2022-08-14T21:23:54.540Z,26.10
2022-08-14T21:26:50.581Z,26.00
2022-08-14T21:29:21.052Z,26.00
2022-08-14T21:31:55.155Z,25.90
2022-08-14T21:34:31.095Z,25.90
2022-08-14T21:37:07.751Z,25.90
2022-08-14T21:39:37.337Z,25.80
2022-08-14T21:42:06.261Z,25.80
2022-08-14T21:44:42.666Z,25.70
2022-08-14T21:47:13.173Z,25.70
2022-08-14T21:49:46.265Z,25.60
2022-08-14T21:52:50.496Z,25.60
2022-08-14T21:55:10.420Z,25.60
2022-08-14T21:58:04.073Z,25.60
2022-08-14T22:00:42.025Z,25.70
2022-08-14T22:03:19.175Z,25.70
2022-08-14T22:05:52.266Z,25.60
2022-08-14T22:08:26.575Z,25.60
2022-08-14T22:10:56.436Z,25.60
2022-08-14T22:13:32.392Z,25.60
2022-08-14T22:16:02.166Z,25.60
2022-08-14T22:18:30.423Z,25.50
2022-08-14T22:20:58.533Z,25.50
2022-08-14T22:23:27.238Z,25.50
2022-08-14T22:25:55.460Z,25.50
2022-08-14T22:28:32.762Z,25.40
2022-08-14T22:31:10.143Z,25.40
2022-08-14T22:33:39.656Z,25.40
2022-08-14T22:36:33.660Z,25.40
2022-08-14T22:39:03.012Z,25.30
2022-08-14T22:41:42.890Z,25.30
2022-08-14T22:44:15.199Z,25.30
2022-08-14T22:46:43.752Z,25.20
2022-08-14T22:49:16.855Z,25.20
2022-08-14T22:52:31.861Z,25.20
2022-08-14T22:54:54.045Z,25.10
2022-08-14T22:57:22.517Z,25.10
2022-08-14T22:59:50.411Z,25.00
2022-08-14T23:02:32.049Z,25.00
2022-08-14T23:05:06.070Z,25.00
2022-08-14T23:08:59.940Z,25.00
2022-08-14T23:10:32.595Z,24.90
2022-08-14T23:13:04.274Z,24.90
2022-08-14T23:15:34.051Z,24.80
2022-08-14T23:18:03.462Z,24.80
2022-08-14T23:20:33.800Z,24.80
2022-08-14T23:23:22.586Z,24.70
2022-08-14T23:25:58.285Z,24.70
2022-08-14T23:28:33.836Z,24.60
2022-08-14T23:31:34.413Z,24.60
2022-08-14T23:34:09.495Z,24.50
2022-08-14T23:36:53.281Z,24.40
2022-08-14T23:39:30.193Z,24.40
2022-08-14T23:42:02.485Z,24.40
2022-08-14T23:44:34.989Z,24.40
2022-08-14T23:47:10.524Z,24.30
2022-08-14T23:50:01.297Z,24.30
2022-08-14T23:52:50.374Z,24.30
2022-08-14T23:55:16.255Z,24.20
2022-08-14T23:57:58.294Z,24.20
